createdAt,value
2019-06-07T00:00:29.848Z,9.20
2019-06-07T00:02:41.540Z,10.08
2019-06-07T00:05:12.496Z,9.80
2019-06-07T00:07:40.665Z,10.75
2019-06-07T00:10:15.465Z,10.43
2019-06-07T00:12:39.992Z,11.05
2019-06-07T00:15:11.710Z,10.40
2019-06-07T00:17:38.963Z,10.08
2019-06-07T00:20:13.444Z,10.82
2019-06-07T00:22:39.181Z,10.75
2019-06-07T00:25:12.571Z,10.48
2019-06-07T00:27:39.274Z,10.65
2019-06-07T00:30:32.740Z,10.50
2019-06-07T00:32:40.059Z,10.78
2019-06-07T00:35:09.182Z,10.10
2019-06-07T00:37:37.803Z,10.65
2019-06-07T00:40:20.923Z,10.90
2019-06-07T00:42:38.766Z,10.85
2019-06-07T00:45:07.835Z,11.10
2019-06-07T00:47:36.711Z,11.18
2019-06-07T00:50:06.323Z,12.13
2019-06-07T00:55:06.685Z,12.70
2019-06-07T00:57:35.140Z,12.18
2019-06-07T01:00:05.221Z,12.75
2019-06-07T01:02:34.176Z,12.35
2019-06-07T01:05:02.716Z,13.10
2019-06-07T01:07:31.170Z,12.35
2019-06-07T01:09:59.620Z,12.95
2019-06-07T01:12:28.089Z,13.03
2019-06-07T01:14:56.538Z,12.98
2019-06-07T01:17:41.703Z,13.35
2019-06-07T01:19:58.244Z,13.48
2019-06-07T01:22:28.898Z,14.38
2019-06-07T01:24:56.897Z,13.05
2019-06-07T01:27:25.693Z,13.85
2019-06-07T01:29:54.156Z,14.60
2019-06-07T01:32:26.539Z,13.93
2019-06-07T01:34:53.091Z,13.62
2019-06-07T01:37:24.909Z,14.50
2019-06-07T01:39:52.108Z,15.50
2019-06-07T01:42:22.656Z,15.28
2019-06-07T01:44:50.691Z,16.27
2019-06-07T01:47:21.248Z,17.12
2019-06-07T01:49:49.640Z,17.45
2019-06-07T01:52:19.516Z,18.15
2019-06-07T01:54:58.059Z,16.90
2019-06-07T01:57:36.187Z,17.55
2019-06-07T01:59:48.600Z,18.10
2019-06-07T02:02:17.788Z,17.62
2019-06-07T02:04:48.051Z,17.52
2019-06-07T02:07:19.418Z,17.37
2019-06-07T02:09:47.395Z,18.42
2019-06-07T02:12:25.727Z,18.40
2019-06-07T02:14:46.676Z,18.32
2019-06-07T02:17:15.130Z,19.05
2019-06-07T02:19:43.621Z,18.82
2019-06-07T02:22:12.342Z,19.48
2019-06-07T02:24:40.805Z,19.40
2019-06-07T02:27:09.518Z,18.25
2019-06-07T02:29:38.337Z,19.05
2019-06-07T02:32:06.822Z,18.92
2019-06-07T02:34:39.222Z,18.92
2019-06-07T02:37:05.748Z,20.92
2019-06-07T02:39:40.047Z,19.80
2019-06-07T02:42:05.042Z,20.08
2019-06-07T02:44:38.904Z,20.25
2019-06-07T02:47:03.952Z,20.50
2019-06-07T02:49:39.596Z,20.75
2019-06-07T02:52:03.009Z,20.62
2019-06-07T02:54:39.200Z,20.37
2019-06-07T02:57:04.472Z,20.40
2019-06-07T02:59:57.466Z,20.80
2019-06-07T03:02:03.469Z,21.80
2019-06-07T03:04:40.565Z,21.42
2019-06-07T03:07:03.529Z,20.68
2019-06-07T03:09:35.027Z,20.82
2019-06-07T03:12:04.697Z,20.70
2019-06-07T03:14:35.547Z,21.12
2019-06-07T03:17:07.280Z,20.92
2019-06-07T03:19:41.849Z,21.85
2019-06-07T03:22:10.351Z,22.87
2019-06-07T03:24:42.015Z,21.05
2019-06-07T03:27:33.960Z,21.12
2019-06-07T03:29:41.321Z,21.48
2019-06-07T03:32:10.297Z,21.55
2019-06-07T03:34:42.879Z,23.65
2019-06-07T03:37:08.916Z,23.00
2019-06-07T03:39:40.977Z,22.62
2019-06-07T03:42:08.601Z,23.30
2019-06-07T03:44:40.641Z,23.60
2019-06-07T03:47:07.417Z,23.45
2019-06-07T03:49:41.729Z,23.35
2019-06-07T03:52:06.408Z,22.62
2019-06-07T03:54:38.395Z,24.32
2019-06-07T03:57:05.415Z,23.87
2019-06-07T03:59:38.581Z,22.95
2019-06-07T04:02:04.476Z,22.17
2019-06-07T04:04:37.824Z,22.00
2019-06-07T04:07:03.468Z,22.32
2019-06-07T04:09:35.658Z,21.85
2019-06-07T04:12:02.426Z,20.35
2019-06-07T04:14:31.333Z,22.07
2019-06-07T04:17:01.061Z,21.82
2019-06-07T04:19:31.465Z,23.47
2019-06-07T04:22:00.064Z,23.57
2019-06-07T04:24:28.885Z,23.52
2019-06-07T04:26:57.644Z,24.75
2019-06-07T04:29:32.949Z,24.20
2019-06-07T04:31:56.276Z,22.77
2019-06-07T04:34:25.047Z,22.20
2019-06-07T04:36:58.940Z,23.77
2019-06-07T04:39:25.081Z,22.67
2019-06-07T04:41:55.451Z,23.05
2019-06-07T04:44:26.165Z,23.15
2019-06-07T04:46:57.354Z,23.02
2019-06-07T04:49:26.302Z,23.38
2019-06-07T04:51:57.340Z,23.05
2019-06-07T04:54:26.439Z,23.38
2019-06-07T04:56:54.893Z,22.87
2019-06-07T05:00:00.916Z,24.65
2019-06-07T05:01:54.103Z,23.30
2019-06-07T05:04:22.840Z,24.00
2019-06-07T05:06:51.285Z,22.67
2019-06-07T05:09:19.745Z,23.27
2019-06-07T05:11:48.507Z,25.02
2019-06-07T05:14:17.300Z,23.77
2019-06-07T05:16:45.764Z,23.98
2019-06-07T05:19:14.605Z,23.12
2019-06-07T05:22:01.433Z,24.25
2019-06-07T05:24:13.270Z,24.15
2019-06-07T05:26:42.875Z,23.95
2019-06-07T05:29:11.557Z,24.47
2019-06-07T05:31:44.803Z,24.10
2019-06-07T05:34:11.143Z,23.62
2019-06-07T05:36:44.108Z,24.95
2019-06-07T05:39:09.766Z,24.18
2019-06-07T05:41:41.210Z,24.43
2019-06-07T05:44:13.074Z,25.10
2019-06-07T05:46:41.912Z,24.50
2019-06-07T05:49:09.806Z,24.85
2019-06-07T05:51:41.897Z,23.95
2019-06-07T05:54:08.786Z,25.00
2019-06-07T05:56:39.360Z,25.15
2019-06-07T05:59:07.436Z,24.70
2019-06-07T06:01:53.181Z,24.32
2019-06-07T06:04:06.479Z,25.12
2019-06-07T06:06:36.351Z,25.60
2019-06-07T06:09:13.689Z,24.52
2019-06-07T06:11:49.430Z,25.08
2019-06-07T06:14:08.552Z,24.95
2019-06-07T06:16:37.299Z,24.10
2019-06-07T06:19:06.340Z,24.60
2019-06-07T06:21:36.100Z,23.95
2019-06-07T06:24:04.703Z,24.72
2019-06-07T06:26:33.481Z,24.60
2019-06-07T06:29:01.920Z,24.23
2019-06-07T06:31:30.399Z,24.30
2019-06-07T06:33:59.259Z,23.80
2019-06-07T06:36:27.707Z,23.45
2019-06-07T06:38:56.144Z,24.60
2019-06-07T06:41:24.588Z,24.80
2019-06-07T06:43:53.037Z,22.48
2019-06-07T06:46:37.989Z,23.95
2019-06-07T06:48:55.359Z,23.98
2019-06-07T06:51:22.853Z,25.00
2019-06-07T06:53:52.603Z,25.20
2019-06-07T06:56:21.160Z,25.05
2019-06-07T06:59:33.092Z,26.02
2019-06-07T07:01:20.240Z,25.27
2019-06-07T07:04:09.192Z,24.12
2019-06-07T07:06:26.345Z,24.23
2019-06-07T07:08:53.391Z,26.33
2019-06-07T07:11:23.173Z,26.10
2019-06-07T07:13:56.333Z,25.27
2019-06-07T07:16:23.159Z,26.10
2019-06-07T07:18:54.427Z,24.07
2019-06-07T07:21:21.781Z,22.35
2019-06-07T07:24:14.578Z,25.82
2019-06-07T07:26:20.740Z,25.32
2019-06-07T07:28:51.756Z,24.47
2019-06-07T07:31:19.748Z,21.45
2019-06-07T07:36:37.399Z,21.77
2019-06-07T07:38:56.603Z,22.27
2019-06-07T07:41:19.416Z,22.32
2019-06-07T07:43:54.494Z,22.48
2019-06-07T07:46:28.992Z,18.45
2019-06-07T07:48:48.614Z,19.45
2019-06-07T07:51:17.927Z,20.68
2019-06-07T07:53:56.109Z,18.85
2019-06-07T07:56:16.853Z,17.42
2019-06-07T07:58:50.024Z,18.45
2019-06-07T08:01:15.904Z,18.90
2019-06-07T08:03:44.353Z,18.55
2019-06-07T08:06:13.150Z,19.12
2019-06-07T08:08:41.944Z,17.98
2019-06-07T08:11:10.404Z,18.85
2019-06-07T08:13:38.851Z,17.82
2019-06-07T08:16:13.581Z,18.25
2019-06-07T08:18:37.497Z,18.65
2019-06-07T08:21:23.706Z,18.25
2019-06-07T08:23:36.490Z,18.30
2019-06-07T08:26:05.042Z,18.37
2019-06-07T08:28:33.470Z,17.57
2019-06-07T08:31:06.950Z,18.05
2019-06-07T08:33:32.168Z,18.05
2019-06-07T08:36:17.137Z,17.52
2019-06-07T08:38:47.050Z,18.23
2019-06-07T08:41:11.073Z,17.80
2019-06-07T08:43:32.080Z,17.65
2019-06-07T08:46:06.854Z,17.65
2019-06-07T08:48:31.094Z,17.37
2019-06-07T08:51:06.599Z,16.32
2019-06-07T08:53:29.702Z,17.30
2019-06-07T08:56:05.805Z,16.85
2019-06-07T08:58:28.693Z,16.93
2019-06-07T09:01:03.856Z,15.35
2019-06-07T09:03:27.676Z,16.05
2019-06-07T09:05:59.458Z,15.63
2019-06-07T09:08:30.439Z,16.30
2019-06-07T09:10:59.436Z,15.72
2019-06-07T09:13:27.316Z,15.18
2019-06-07T09:15:58.799Z,14.80
2019-06-07T09:18:44.311Z,15.75
2019-06-07T09:20:58.187Z,15.35
2019-06-07T09:23:26.560Z,14.55
2019-06-07T09:26:04.572Z,14.65
2019-06-07T09:28:25.833Z,13.75
2019-06-07T09:30:57.094Z,15.32
2019-06-07T09:33:24.822Z,14.55
2019-06-07T09:35:53.666Z,13.22
2019-06-07T09:38:26.676Z,14.03
2019-06-07T09:40:52.381Z,14.03
2019-06-07T09:45:51.006Z,13.55
2019-06-07T09:49:01.324Z,13.85
2019-06-07T09:50:49.622Z,13.85
2019-06-07T09:53:22.566Z,13.28
2019-06-07T09:55:48.597Z,12.98
2019-06-07T09:58:50.105Z,13.62
2019-06-07T10:00:47.225Z,12.55
2019-06-07T10:03:21.348Z,13.98
2019-06-07T10:05:46.408Z,12.95
2019-06-07T10:09:00.994Z,12.88
2019-06-07T10:10:45.838Z,11.55
2019-06-07T10:13:14.550Z,12.45
2019-06-07T10:15:43.345Z,12.75
2019-06-07T10:18:12.246Z,11.30
2019-06-07T10:20:41.035Z,11.90
2019-06-07T10:23:10.116Z,10.68
2019-06-07T10:25:38.768Z,11.33
2019-06-07T10:28:08.250Z,10.68
2019-06-07T10:30:37.131Z,11.85
2019-06-07T10:33:06.876Z,11.83
2019-06-07T10:35:35.579Z,11.20
2019-06-07T10:38:04.741Z,12.03
2019-06-07T10:40:33.529Z,9.60
2019-06-07T10:43:02.910Z,10.28
2019-06-07T10:45:31.716Z,9.70
2019-06-07T10:48:01.531Z,10.30
2019-06-07T10:50:30.048Z,10.38
2019-06-07T10:52:58.824Z,9.15
2019-06-07T10:55:27.362Z,9.45
2019-06-07T10:57:55.811Z,11.03
2019-06-07T11:00:25.080Z,9.40
2019-06-07T11:02:55.316Z,9.85
2019-06-07T11:05:24.074Z,9.50
2019-06-07T11:07:52.914Z,10.58
2019-06-07T11:10:21.420Z,10.30
2019-06-07T11:12:49.870Z,9.98
2019-06-07T11:15:18.645Z,9.63
2019-06-07T11:17:47.110Z,10.80
2019-06-07T11:20:15.913Z,9.80
2019-06-07T11:22:44.374Z,10.38
2019-06-07T11:25:15.211Z,10.38
2019-06-07T11:27:43.707Z,10.32
2019-06-07T11:30:14.411Z,9.10
2019-06-07T11:32:43.310Z,10.10
2019-06-07T11:35:14.001Z,10.78
2019-06-07T11:37:43.357Z,10.88
2019-06-07T11:40:35.457Z,9.48
2019-06-07T11:42:43.007Z,8.35
2019-06-07T11:45:13.013Z,10.30
2019-06-07T11:47:41.695Z,8.90
2019-06-07T11:50:13.572Z,9.28
2019-06-07T11:52:46.147Z,9.38
2019-06-07T11:55:15.591Z,8.78
2019-06-07T11:57:44.124Z,7.67
2019-06-07T12:00:16.452Z,6.85
2019-06-07T12:02:45.762Z,7.95
2019-06-07T12:05:18.312Z,7.80
2019-06-07T12:07:45.329Z,6.30
2019-06-07T12:10:16.564Z,5.78
2019-06-07T12:12:44.509Z,5.30
2019-06-07T12:15:15.001Z,5.33
2019-06-07T12:17:43.985Z,5.72
2019-06-07T12:20:14.593Z,6.45
2019-06-07T12:22:43.210Z,7.10
2019-06-07T12:25:12.471Z,6.80
2019-06-07T12:27:42.537Z,5.62
2019-06-07T12:30:18.099Z,5.62
2019-06-07T12:32:41.264Z,5.65
2019-06-07T12:35:11.353Z,5.80
2019-06-07T12:37:44.290Z,5.75
2019-06-07T12:40:10.621Z,5.33
2019-06-07T12:42:40.204Z,5.03
2019-06-07T12:45:09.594Z,5.87
2019-06-07T12:47:38.034Z,5.78
2019-06-07T12:50:07.254Z,4.87
2019-06-07T12:52:36.096Z,5.08
2019-06-07T12:55:08.603Z,4.85
2019-06-07T12:57:37.051Z,4.70
2019-06-07T13:00:10.417Z,4.75
2019-06-07T13:02:38.876Z,5.03
2019-06-07T13:05:09.482Z,4.60
2019-06-07T13:07:37.953Z,4.15
2019-06-07T13:10:07.770Z,4.10
2019-06-07T13:12:36.248Z,4.22
2019-06-07T13:15:07.001Z,4.50
2019-06-07T13:17:35.977Z,4.10
2019-06-07T13:20:06.584Z,4.30
2019-06-07T13:22:35.157Z,4.30
2019-06-07T13:25:05.585Z,4.10
2019-06-07T13:27:34.097Z,4.37
2019-06-07T13:30:09.746Z,4.12
2019-06-07T13:32:33.100Z,3.77
2019-06-07T13:35:01.854Z,3.50
2019-06-07T13:37:30.289Z,3.92
2019-06-07T13:39:58.759Z,3.80
2019-06-07T13:42:27.197Z,4.20
2019-06-07T13:44:55.913Z,3.92
2019-06-07T13:47:25.348Z,3.92
2019-06-07T13:49:55.172Z,3.90
2019-06-07T13:52:24.041Z,4.03
2019-06-07T13:54:52.545Z,3.80
2019-06-07T13:57:22.233Z,4.20
2019-06-07T13:59:50.997Z,3.60
2019-06-07T14:02:20.872Z,3.30
2019-06-07T14:04:50.047Z,3.37
2019-06-07T14:07:19.090Z,3.30
2019-06-07T14:09:48.132Z,3.60
2019-06-07T14:12:16.569Z,3.65
2019-06-07T14:14:45.017Z,3.70
2019-06-07T14:17:13.448Z,3.60
2019-06-07T14:19:42.184Z,3.72
2019-06-07T14:22:10.612Z,3.35
2019-06-07T14:24:39.086Z,3.45
2019-06-07T14:27:07.534Z,3.42
2019-06-07T14:29:38.187Z,3.45
2019-06-07T14:32:07.971Z,3.37
2019-06-07T14:34:36.546Z,3.27
2019-06-07T14:37:06.632Z,3.10
2019-06-07T14:39:35.389Z,3.00
2019-06-07T14:42:10.025Z,3.27
2019-06-07T14:44:34.715Z,2.80
2019-06-07T14:47:03.511Z,2.95
2019-06-07T14:49:32.827Z,3.33
2019-06-07T14:52:01.833Z,2.87
2019-06-07T14:54:32.149Z,2.98
2019-06-07T14:57:03.126Z,2.90
2019-06-07T14:59:30.691Z,3.30
2019-06-07T15:01:59.382Z,3.08
2019-06-07T15:04:28.635Z,2.90
2019-06-07T15:06:57.140Z,3.05
2019-06-07T15:09:26.915Z,3.30
2019-06-07T15:11:56.381Z,3.10
2019-06-07T15:14:24.909Z,2.92
2019-06-07T15:16:53.642Z,3.15
2019-06-07T15:19:24.194Z,3.30
2019-06-07T15:21:52.245Z,3.02
2019-06-07T15:24:21.033Z,3.10
2019-06-07T15:26:49.841Z,2.90
2019-06-07T15:29:18.298Z,3.12
2019-06-07T15:31:46.824Z,2.50
2019-06-07T15:34:15.241Z,2.67
2019-06-07T15:36:43.979Z,3.00
2019-06-07T15:39:12.770Z,2.77
2019-06-07T15:41:41.204Z,2.75
2019-06-07T15:44:09.658Z,2.70
2019-06-07T15:46:38.177Z,2.90
2019-06-07T15:49:06.727Z,2.67
2019-06-07T15:51:36.569Z,2.62
2019-06-07T15:54:05.544Z,2.50
2019-06-07T15:56:34.636Z,2.70
2019-06-07T15:59:03.417Z,2.80
2019-06-07T16:01:33.318Z,2.60
2019-06-07T16:04:02.145Z,2.70
2019-06-07T16:06:32.090Z,2.58
2019-06-07T16:09:01.058Z,3.00
2019-06-07T16:11:30.240Z,2.72
2019-06-07T16:13:58.941Z,2.95
2019-06-07T16:16:27.392Z,2.70
2019-06-07T16:18:56.119Z,2.70
2019-06-07T16:21:24.569Z,3.20
2019-06-07T16:23:53.295Z,3.20
2019-06-07T16:26:21.729Z,2.85
2019-06-07T16:28:50.585Z,2.50
2019-06-07T16:31:19.263Z,2.85
2019-06-07T16:33:48.082Z,3.00
2019-06-07T16:36:16.859Z,3.00
2019-06-07T16:38:45.312Z,3.10
2019-06-07T16:41:13.748Z,2.90
2019-06-07T16:43:42.699Z,3.10
2019-06-07T16:46:11.219Z,2.92
2019-06-07T16:48:40.828Z,3.10
2019-06-07T16:51:09.460Z,3.25
2019-06-07T16:53:38.319Z,3.00
2019-06-07T16:56:07.101Z,2.85
2019-06-07T16:58:35.893Z,3.00
2019-06-07T17:01:04.785Z,3.10
2019-06-07T17:03:33.216Z,2.90
2019-06-07T17:06:01.701Z,3.30
2019-06-07T17:08:30.174Z,2.77
2019-06-07T17:10:58.642Z,2.85
2019-06-07T17:13:33.508Z,3.30
2019-06-07T17:15:58.056Z,3.00
2019-06-07T17:18:26.854Z,2.77
2019-06-07T17:20:55.288Z,3.62
2019-06-07T17:23:23.754Z,3.72
2019-06-07T17:25:52.312Z,3.77
2019-06-07T17:28:20.779Z,3.70
2019-06-07T17:30:50.306Z,3.52
2019-06-07T17:33:19.301Z,3.40
2019-06-07T17:35:48.558Z,3.92
2019-06-07T17:38:17.210Z,3.40
2019-06-07T17:40:46.999Z,4.05
2019-06-07T17:43:15.587Z,3.72
2019-06-07T17:45:45.285Z,4.45
2019-06-07T17:48:14.450Z,3.70
2019-06-07T17:50:43.696Z,4.60
2019-06-07T17:53:12.378Z,4.10
2019-06-07T17:55:42.082Z,4.17
2019-06-07T17:58:10.664Z,4.25
2019-06-07T18:00:51.015Z,4.70
2019-06-07T18:03:20.381Z,4.20
2019-06-07T18:05:49.740Z,4.62
2019-06-07T18:08:18.457Z,4.62
2019-06-07T18:10:47.869Z,4.67
2019-06-07T18:13:16.573Z,4.25
2019-06-07T18:15:53.276Z,4.58
2019-06-07T18:18:18.106Z,4.58
2019-06-07T18:20:47.152Z,4.30
2019-06-07T18:23:16.452Z,4.35
2019-06-07T18:25:46.418Z,3.85
2019-06-07T18:28:15.466Z,3.30
2019-06-07T18:30:44.370Z,3.00
2019-06-07T18:33:12.802Z,2.90
2019-06-07T18:35:41.251Z,2.75
2019-06-07T18:38:10.903Z,3.02
2019-06-07T18:40:40.647Z,2.65
2019-06-07T18:43:09.140Z,2.62
2019-06-07T18:45:37.956Z,3.17
2019-06-07T18:48:06.943Z,2.87
2019-06-07T18:50:36.285Z,2.77
2019-06-07T18:53:05.453Z,3.08
2019-06-07T18:55:33.960Z,2.70
2019-06-07T18:58:02.837Z,2.85
2019-06-07T19:00:32.556Z,3.25
2019-06-07T19:03:01.005Z,2.98
2019-06-07T19:05:29.723Z,3.25
2019-06-07T19:07:59.945Z,3.12
2019-06-07T19:10:28.973Z,3.17
2019-06-07T19:12:57.757Z,3.10
2019-06-07T19:15:26.821Z,3.27
2019-06-07T19:17:56.135Z,2.75
2019-06-07T19:20:25.151Z,3.90
2019-06-07T19:22:54.184Z,3.27
2019-06-07T19:25:22.860Z,2.35
2019-06-07T19:27:52.774Z,2.40
2019-06-07T19:30:21.501Z,2.02
2019-06-07T19:32:51.403Z,2.00
2019-06-07T19:35:20.540Z,1.95
2019-06-07T19:37:49.039Z,1.75
2019-06-07T19:40:17.610Z,2.22
2019-06-07T19:42:46.332Z,1.70
2019-06-07T19:45:29.699Z,2.00
2019-06-07T19:47:47.205Z,1.65
2019-06-07T19:50:16.870Z,1.62
2019-06-07T19:52:45.710Z,1.60
2019-06-07T19:55:14.418Z,1.35
2019-06-07T19:57:42.916Z,1.70
2019-06-07T20:00:14.637Z,1.65
2019-06-07T20:02:43.341Z,1.27
2019-06-07T20:05:15.961Z,1.45
2019-06-07T20:07:44.477Z,1.20
2019-06-07T20:10:15.234Z,1.32
2019-06-07T20:12:43.674Z,1.30
2019-06-07T20:15:27.948Z,1.35
2019-06-07T20:17:43.909Z,1.42
2019-06-07T20:20:12.527Z,1.30
2019-06-07T20:22:41.031Z,1.37
2019-06-07T20:25:11.530Z,1.20
2019-06-07T20:27:39.967Z,1.10
2019-06-07T20:30:09.565Z,1.40
2019-06-07T20:32:37.997Z,1.10
2019-06-07T20:35:08.303Z,1.25
2019-06-07T20:37:37.406Z,0.95
2019-06-07T20:40:22.806Z,1.12
2019-06-07T20:42:39.569Z,1.40
2019-06-07T20:45:08.778Z,1.40
2019-06-07T20:47:37.234Z,1.55
2019-06-07T20:50:09.232Z,1.60
2019-06-07T20:52:37.776Z,1.80
2019-06-07T20:55:07.215Z,1.27
2019-06-07T20:57:35.754Z,1.30
2019-06-07T21:00:20.417Z,1.00
2019-06-07T21:02:40.028Z,1.65
2019-06-07T21:05:09.955Z,1.50
2019-06-07T21:07:38.720Z,1.70
2019-06-07T21:10:10.805Z,1.30
2019-06-07T21:12:39.827Z,1.95
2019-06-07T21:15:13.791Z,1.70
2019-06-07T21:17:39.306Z,2.60
2019-06-07T21:20:13.655Z,1.40
2019-06-07T21:22:40.020Z,1.20
2019-06-07T21:25:09.702Z,1.20
2019-06-07T21:27:38.631Z,1.00
2019-06-07T21:30:11.607Z,1.30
2019-06-07T21:32:40.281Z,1.20
2019-06-07T21:35:10.195Z,1.20
2019-06-07T21:37:39.262Z,1.12
2019-06-07T21:40:08.382Z,1.10
2019-06-07T21:42:37.333Z,1.07
2019-06-07T21:45:07.893Z,1.07
2019-06-07T21:47:36.898Z,0.80
2019-06-07T21:50:10.613Z,1.05
2019-06-07T21:52:39.664Z,0.90
2019-06-07T21:55:09.119Z,0.90
2019-06-07T21:57:38.984Z,0.95
2019-06-07T22:00:14.852Z,0.80
2019-06-07T22:02:43.319Z,0.95
2019-06-07T22:05:12.227Z,1.10
2019-06-07T22:07:40.665Z,0.80
2019-06-07T22:10:10.065Z,0.90
2019-06-07T22:12:38.711Z,0.80
2019-06-07T22:15:28.504Z,1.10
2019-06-07T22:17:38.563Z,0.80
2019-06-07T22:20:08.479Z,0.88
2019-06-07T22:22:37.168Z,0.80
2019-06-07T22:25:07.071Z,0.82
2019-06-07T22:27:35.560Z,1.00
2019-06-07T22:30:08.270Z,0.80
2019-06-07T22:32:37.180Z,0.90
2019-06-07T22:35:06.772Z,0.62
2019-06-07T22:37:35.746Z,0.88
2019-06-07T22:40:10.535Z,0.88
2019-06-07T22:42:39.279Z,0.70
2019-06-07T22:45:10.655Z,1.02
2019-06-07T22:47:38.914Z,0.95
2019-06-07T22:50:08.744Z,0.80
2019-06-07T22:52:37.583Z,0.80
2019-06-07T22:55:07.856Z,0.80
2019-06-07T22:57:54.122Z,0.90
2019-06-07T23:00:23.530Z,0.70
2019-06-07T23:02:51.975Z,0.60
2019-06-07T23:05:20.428Z,0.60
2019-06-07T23:07:48.920Z,0.70
2019-06-07T23:10:17.633Z,0.60
2019-06-07T23:12:46.377Z,1.10
2019-06-07T23:15:15.491Z,0.90
2019-06-07T23:17:44.367Z,0.90
2019-06-07T23:20:13.775Z,0.72
2019-06-07T23:22:42.566Z,0.90
2019-06-07T23:25:12.258Z,1.00
2019-06-07T23:27:41.275Z,0.88
2019-06-07T23:30:10.774Z,0.88
2019-06-07T23:32:39.277Z,0.90
2019-06-07T23:35:08.785Z,0.70
2019-06-07T23:37:37.236Z,0.72
2019-06-07T23:40:06.958Z,1.00
2019-06-07T23:42:35.432Z,0.85
2019-06-07T23:45:04.710Z,0.80
2019-06-07T23:47:33.468Z,0.80
2019-06-07T23:50:01.939Z,0.90
2019-06-07T23:52:30.751Z,0.65
2019-06-07T23:54:59.193Z,0.62
2019-06-07T23:57:27.634Z,0.75
2019-06-07T23:59:56.408Z,0.80
